sensor_id;sensor_type;location;lat;lon;timestamp;temperature;humidity
37222;DHT22;23119;51.842;-2.230;2023-04-03T00:01:45;5.40;99.90
37222;DHT22;23119;51.842;-2.230;2023-04-03T00:04:13;5.30;99.90
37222;DHT22;23119;51.842;-2.230;2023-04-03T00:06:41;5.40;99.90
37222;DHT22;23119;51.842;-2.230;2023-04-03T00:09:07;5.40;99.90
37222;DHT22;23119;51.842;-2.230;2023-04-03T00:11:33;5.30;99.90
37222;DHT22;23119;51.842;-2.230;2023-04-03T00:13:59;5.30;99.90
37222;DHT22;23119;51.842;-2.230;2023-04-03T00:16:29;5.30;99.90
37222;DHT22;23119;51.842;-2.230;2023-04-03T00:18:55;5.30;99.90
37222;DHT22;23119;51.842;-2.230;2023-04-03T00:21:23;5.30;99.90
37222;DHT22;23119;51.842;-2.230;2023-04-03T00:23:49;5.40;99.90
37222;DHT22;23119;51.842;-2.230;2023-04-03T00:26:15;5.30;99.90
37222;DHT22;23119;51.842;-2.230;2023-04-03T00:28:47;5.30;99.90
37222;DHT22;23119;51.842;-2.230;2023-04-03T00:31:20;5.20;99.90
37222;DHT22;23119;51.842;-2.230;2023-04-03T00:33:46;5.10;99.90
37222;DHT22;23119;51.842;-2.230;2023-04-03T00:36:14;5.30;99.90
37222;DHT22;23119;51.842;-2.230;2023-04-03T00:38:40;5.20;99.90
37222;DHT22;23119;51.842;-2.230;2023-04-03T00:41:08;5.20;99.90
37222;DHT22;23119;51.842;-2.230;2023-04-03T00:43:37;5.30;99.90
37222;DHT22;23119;51.842;-2.230;2023-04-03T00:46:05;5.20;99.90
37222;DHT22;23119;51.842;-2.230;2023-04-03T00:48:37;5.10;99.90
37222;DHT22;23119;51.842;-2.230;2023-04-03T00:51:27;5.10;99.90
37222;DHT22;23119;51.842;-2.230;2023-04-03T00:53:56;5.20;99.90
37222;DHT22;23119;51.842;-2.230;2023-04-03T00:56:25;5.20;99.90
37222;DHT22;23119;51.842;-2.230;2023-04-03T00:58:58;5.10;99.90
37222;DHT22;23119;51.842;-2.230;2023-04-03T01:01:27;5.20;99.90
37222;DHT22;23119;51.842;-2.230;2023-04-03T01:03:53;5.00;99.90
37222;DHT22;23119;51.842;-2.230;2023-04-03T01:06:23;5.00;99.90
37222;DHT22;23119;51.842;-2.230;2023-04-03T01:08:50;5.10;99.90
37222;DHT22;23119;51.842;-2.230;2023-04-03T01:11:19;5.00;99.90
37222;DHT22;23119;51.842;-2.230;2023-04-03T01:13:47;4.90;99.90
37222;DHT22;23119;51.842;-2.230;2023-04-03T01:16:18;4.80;99.90
37222;DHT22;23119;51.842;-2.230;2023-04-03T01:18:50;4.80;99.90
37222;DHT22;23119;51.842;-2.230;2023-04-03T01:24:25;4.80;99.90
37222;DHT22;23119;51.842;-2.230;2023-04-03T01:27:00;4.60;99.90
37222;DHT22;23119;51.842;-2.230;2023-04-03T01:29:40;4.50;99.90
37222;DHT22;23119;51.842;-2.230;2023-04-03T01:32:09;4.40;99.90
37222;DHT22;23119;51.842;-2.230;2023-04-03T01:34:37;4.50;99.90
37222;DHT22;23119;51.842;-2.230;2023-04-03T01:37:03;4.40;99.90
37222;DHT22;23119;51.842;-2.230;2023-04-03T01:39:30;4.40;99.90
37222;DHT22;23119;51.842;-2.230;2023-04-03T01:44:21;4.30;99.90
37222;DHT22;23119;51.842;-2.230;2023-04-03T01:46:55;4.40;99.90
37222;DHT22;23119;51.842;-2.230;2023-04-03T01:49:23;4.50;99.90
37222;DHT22;23119;51.842;-2.230;2023-04-03T01:51:51;4.40;99.90
37222;DHT22;23119;51.842;-2.230;2023-04-03T01:54:17;4.50;99.90
37222;DHT22;23119;51.842;-2.230;2023-04-03T01:56:45;4.50;99.90
37222;DHT22;23119;51.842;-2.230;2023-04-03T01:59:11;4.50;99.90
37222;DHT22;23119;51.842;-2.230;2023-04-03T02:01:42;4.50;99.90
37222;DHT22;23119;51.842;-2.230;2023-04-03T02:04:31;4.40;99.90
37222;DHT22;23119;51.842;-2.230;2023-04-03T02:06:56;4.50;99.90
37222;DHT22;23119;51.842;-2.230;2023-04-03T02:09:27;4.40;99.90
37222;DHT22;23119;51.842;-2.230;2023-04-03T02:11:53;4.30;99.90
37222;DHT22;23119;51.842;-2.230;2023-04-03T02:14:19;4.40;99.90
37222;DHT22;23119;51.842;-2.230;2023-04-03T02:16:47;4.30;99.90
37222;DHT22;23119;51.842;-2.230;2023-04-03T02:19:13;4.40;99.90
37222;DHT22;23119;51.842;-2.230;2023-04-03T02:21:43;4.30;99.90
37222;DHT22;23119;51.842;-2.230;2023-04-03T02:24:14;4.30;99.90
37222;DHT22;23119;51.842;-2.230;2023-04-03T02:26:40;4.30;99.90
37222;DHT22;23119;51.842;-2.230;2023-04-03T02:29:09;4.10;99.90
37222;DHT22;23119;51.842;-2.230;2023-04-03T02:31:34;4.20;99.90
37222;DHT22;23119;51.842;-2.230;2023-04-03T02:34:03;4.20;99.90
37222;DHT22;23119;51.842;-2.230;2023-04-03T02:36:31;4.20;99.90
37222;DHT22;23119;51.842;-2.230;2023-04-03T02:39:01;4.10;99.90
37222;DHT22;23119;51.842;-2.230;2023-04-03T02:41:30;4.10;99.90
37222;DHT22;23119;51.842;-2.230;2023-04-03T02:44:03;4.10;99.90
37222;DHT22;23119;51.842;-2.230;2023-04-03T02:46:38;4.10;99.90
37222;DHT22;23119;51.842;-2.230;2023-04-03T02:49:07;4.10;99.90
37222;DHT22;23119;51.842;-2.230;2023-04-03T02:51:36;4.00;99.90
37222;DHT22;23119;51.842;-2.230;2023-04-03T02:54:04;4.00;99.90
37222;DHT22;23119;51.842;-2.230;2023-04-03T02:56:30;4.00;99.90
37222;DHT22;23119;51.842;-2.230;2023-04-03T02:58:58;3.90;99.90
37222;DHT22;23119;51.842;-2.230;2023-04-03T03:01:27;3.90;99.90
37222;DHT22;23119;51.842;-2.230;2023-04-03T03:03:59;3.90;99.90
37222;DHT22;23119;51.842;-2.230;2023-04-03T03:06:36;3.90;99.90
37222;DHT22;23119;51.842;-2.230;2023-04-03T03:09:07;3.80;99.90
37222;DHT22;23119;51.842;-2.230;2023-04-03T03:11:33;3.80;99.90
37222;DHT22;23119;51.842;-2.230;2023-04-03T03:13:59;3.70;99.90
37222;DHT22;23119;51.842;-2.230;2023-04-03T03:16:28;3.70;99.90
37222;DHT22;23119;51.842;-2.230;2023-04-03T03:18:55;3.60;99.90
37222;DHT22;23119;51.842;-2.230;2023-04-03T03:21:24;3.60;99.90
37222;DHT22;23119;51.842;-2.230;2023-04-03T03:23:49;3.60;99.90
37222;DHT22;23119;51.842;-2.230;2023-04-03T03:26:18;3.60;99.90
37222;DHT22;23119;51.842;-2.230;2023-04-03T03:28:43;3.60;99.90
37222;DHT22;23119;51.842;-2.230;2023-04-03T03:31:13;3.60;99.90
37222;DHT22;23119;51.842;-2.230;2023-04-03T03:33:43;3.50;99.90
37222;DHT22;23119;51.842;-2.230;2023-04-03T03:36:16;3.50;99.90
37222;DHT22;23119;51.842;-2.230;2023-04-03T03:38:41;3.50;99.90
37222;DHT22;23119;51.842;-2.230;2023-04-03T03:41:10;3.40;99.90
37222;DHT22;23119;51.842;-2.230;2023-04-03T03:43:38;3.40;99.90
37222;DHT22;23119;51.842;-2.230;2023-04-03T03:46:04;3.40;99.90
37222;DHT22;23119;51.842;-2.230;2023-04-03T03:48:30;3.30;99.90
37222;DHT22;23119;51.842;-2.230;2023-04-03T03:50:58;3.30;99.90
37222;DHT22;23119;51.842;-2.230;2023-04-03T03:53:24;3.30;99.90
37222;DHT22;23119;51.842;-2.230;2023-04-03T03:55:53;3.30;99.90
37222;DHT22;23119;51.842;-2.230;2023-04-03T03:58:21;3.30;99.90
37222;DHT22;23119;51.842;-2.230;2023-04-03T04:00:51;3.30;99.90
37222;DHT22;23119;51.842;-2.230;2023-04-03T04:03:20;3.30;99.90
37222;DHT22;23119;51.842;-2.230;2023-04-03T04:05:48;3.30;99.90
37222;DHT22;23119;51.842;-2.230;2023-04-03T04:08:14;3.20;99.90
37222;DHT22;23119;51.842;-2.230;2023-04-03T04:10:40;3.20;99.90
37222;DHT22;23119;51.842;-2.230;2023-04-03T04:13:08;3.20;99.90
37222;DHT22;23119;51.842;-2.230;2023-04-03T04:15:36;3.20;99.90
37222;DHT22;23119;51.842;-2.230;2023-04-03T04:18:02;3.10;99.90
37222;DHT22;23119;51.842;-2.230;2023-04-03T04:20:30;3.10;99.90
37222;DHT22;23119;51.842;-2.230;2023-04-03T04:22:56;3.00;99.90
37222;DHT22;23119;51.842;-2.230;2023-04-03T04:25:22;3.00;99.90
37222;DHT22;23119;51.842;-2.230;2023-04-03T04:27:50;3.00;99.90
37222;DHT22;23119;51.842;-2.230;2023-04-03T04:30:16;3.00;99.90
37222;DHT22;23119;51.842;-2.230;2023-04-03T04:32:42;3.00;99.90
37222;DHT22;23119;51.842;-2.230;2023-04-03T04:35:17;5.40;99.90
37222;DHT22;23119;51.842;-2.230;2023-04-03T04:37:45;2.90;99.90
37222;DHT22;23119;51.842;-2.230;2023-04-03T04:40:11;2.80;99.90
37222;DHT22;23119;51.842;-2.230;2023-04-03T04:42:37;2.80;99.90
37222;DHT22;23119;51.842;-2.230;2023-04-03T04:45:03;3.10;99.90
37222;DHT22;23119;51.842;-2.230;2023-04-03T04:47:37;2.80;99.90
37222;DHT22;23119;51.842;-2.230;2023-04-03T04:50:05;2.80;99.90
37222;DHT22;23119;51.842;-2.230;2023-04-03T04:52:34;2.60;99.90
37222;DHT22;23119;51.842;-2.230;2023-04-03T04:55:07;2.70;99.90
37222;DHT22;23119;51.842;-2.230;2023-04-03T04:57:41;2.50;99.90
37222;DHT22;23119;51.842;-2.230;2023-04-03T05:00:12;2.60;99.90
37222;DHT22;23119;51.842;-2.230;2023-04-03T05:02:38;2.60;99.90
37222;DHT22;23119;51.842;-2.230;2023-04-03T05:05:06;2.60;99.90
37222;DHT22;23119;51.842;-2.230;2023-04-03T05:07:35;2.60;99.90
37222;DHT22;23119;51.842;-2.230;2023-04-03T05:10:01;2.50;99.90
37222;DHT22;23119;51.842;-2.230;2023-04-03T05:12:35;2.50;99.90
37222;DHT22;23119;51.842;-2.230;2023-04-03T05:15:04;2.50;99.90
37222;DHT22;23119;51.842;-2.230;2023-04-03T05:17:32;2.50;99.90
37222;DHT22;23119;51.842;-2.230;2023-04-03T05:20:02;2.50;99.90
37222;DHT22;23119;51.842;-2.230;2023-04-03T05:22:29;2.40;99.90
37222;DHT22;23119;51.842;-2.230;2023-04-03T05:24:55;2.40;99.90
37222;DHT22;23119;51.842;-2.230;2023-04-03T05:27:28;2.50;99.90
37222;DHT22;23119;51.842;-2.230;2023-04-03T05:29:59;2.40;99.90
37222;DHT22;23119;51.842;-2.230;2023-04-03T05:32:29;2.40;99.90
37222;DHT22;23119;51.842;-2.230;2023-04-03T05:34:57;2.30;99.90
37222;DHT22;23119;51.842;-2.230;2023-04-03T05:37:23;2.40;99.90
37222;DHT22;23119;51.842;-2.230;2023-04-03T05:39:49;2.40;99.90
37222;DHT22;23119;51.842;-2.230;2023-04-03T05:42:26;2.40;99.90
37222;DHT22;23119;51.842;-2.230;2023-04-03T05:44:55;2.40;99.90
37222;DHT22;23119;51.842;-2.230;2023-04-03T05:47:20;2.40;99.90
37222;DHT22;23119;51.842;-2.230;2023-04-03T05:49:46;2.40;99.90
37222;DHT22;23119;51.842;-2.230;2023-04-03T05:52:33;2.50;99.90
37222;DHT22;23119;51.842;-2.230;2023-04-03T05:55:00;2.50;99.90
37222;DHT22;23119;51.842;-2.230;2023-04-03T05:57:26;2.50;99.90
37222;DHT22;23119;51.842;-2.230;2023-04-03T05:59:52;2.50;99.90
37222;DHT22;23119;51.842;-2.230;2023-04-03T06:02:20;2.60;99.90
37222;DHT22;23119;51.842;-2.230;2023-04-03T06:04:49;2.60;99.90
37222;DHT22;23119;51.842;-2.230;2023-04-03T06:07:24;2.70;99.90
37222;DHT22;23119;51.842;-2.230;2023-04-03T06:09:56;2.90;99.90
37222;DHT22;23119;51.842;-2.230;2023-04-03T06:12:22;3.40;99.90
37222;DHT22;23119;51.842;-2.230;2023-04-03T06:14:53;4.50;99.90
37222;DHT22;23119;51.842;-2.230;2023-04-03T06:17:25;6.10;99.90
37222;DHT22;23119;51.842;-2.230;2023-04-03T06:19:55;7.60;99.90
37222;DHT22;23119;51.842;-2.230;2023-04-03T06:22:21;8.80;99.90
37222;DHT22;23119;51.842;-2.230;2023-04-03T06:24:54;10.30;99.90
37222;DHT22;23119;51.842;-2.230;2023-04-03T06:27:25;11.90;99.90
37222;DHT22;23119;51.842;-2.230;2023-04-03T06:29:54;13.30;99.90
37222;DHT22;23119;51.842;-2.230;2023-04-03T06:32:20;14.50;99.90
37222;DHT22;23119;51.842;-2.230;2023-04-03T06:34:45;15.70;99.90
37222;DHT22;23119;51.842;-2.230;2023-04-03T06:37:22;16.80;98.10
37222;DHT22;23119;51.842;-2.230;2023-04-03T06:39:53;17.90;96.50
37222;DHT22;23119;51.842;-2.230;2023-04-03T06:42:20;19.00;95.60
37222;DHT22;23119;51.842;-2.230;2023-04-03T06:44:46;20.00;94.50
37222;DHT22;23119;51.842;-2.230;2023-04-03T06:47:20;20.60;92.70
37222;DHT22;23119;51.842;-2.230;2023-04-03T06:49:46;21.50;91.20
37222;DHT22;23119;51.842;-2.230;2023-04-03T06:52:17;22.20;90.70
37222;DHT22;23119;51.842;-2.230;2023-04-03T06:54:43;23.10;83.10
37222;DHT22;23119;51.842;-2.230;2023-04-03T06:57:12;23.60;85.80
37222;DHT22;23119;51.842;-2.230;2023-04-03T06:59:39;24.50;83.80
37222;DHT22;23119;51.842;-2.230;2023-04-03T07:02:06;24.60;80.90
37222;DHT22;23119;51.842;-2.230;2023-04-03T07:04:34;25.60;79.80
37222;DHT22;23119;51.842;-2.230;2023-04-03T07:07:02;26.00;77.10
37222;DHT22;23119;51.842;-2.230;2023-04-03T07:09:27;26.90;76.60
37222;DHT22;23119;51.842;-2.230;2023-04-03T07:11:55;27.30;73.50
37222;DHT22;23119;51.842;-2.230;2023-04-03T07:14:23;27.20;72.50
37222;DHT22;23119;51.842;-2.230;2023-04-03T07:16:51;27.80;67.50
37222;DHT22;23119;51.842;-2.230;2023-04-03T07:19:17;27.40;69.50
37222;DHT22;23119;51.842;-2.230;2023-04-03T07:21:44;27.70;69.10
37222;DHT22;23119;51.842;-2.230;2023-04-03T07:24:10;27.90;68.30
37222;DHT22;23119;51.842;-2.230;2023-04-03T07:26:36;28.40;66.40
37222;DHT22;23119;51.842;-2.230;2023-04-03T07:29:07;28.80;64.80
37222;DHT22;23119;51.842;-2.230;2023-04-03T07:31:33;29.20;65.90
37222;DHT22;23119;51.842;-2.230;2023-04-03T07:33:59;29.90;64.80
37222;DHT22;23119;51.842;-2.230;2023-04-03T07:36:25;30.20;65.10
37222;DHT22;23119;51.842;-2.230;2023-04-03T07:38:50;29.90;63.70
37222;DHT22;23119;51.842;-2.230;2023-04-03T07:41:22;30.70;63.10
37222;DHT22;23119;51.842;-2.230;2023-04-03T07:43:48;30.80;61.50
37222;DHT22;23119;51.842;-2.230;2023-04-03T07:46:15;30.70;62.10
37222;DHT22;23119;51.842;-2.230;2023-04-03T07:48:45;31.50;62.10
37222;DHT22;23119;51.842;-2.230;2023-04-03T07:51:10;32.00;61.10
37222;DHT22;23119;51.842;-2.230;2023-04-03T07:53:38;32.40;60.60
37222;DHT22;23119;51.842;-2.230;2023-04-03T07:56:04;32.50;57.20
37222;DHT22;23119;51.842;-2.230;2023-04-03T07:58:30;32.50;58.70
37222;DHT22;23119;51.842;-2.230;2023-04-03T08:00:56;32.80;58.70
37222;DHT22;23119;51.842;-2.230;2023-04-03T08:03:30;33.30;58.10
37222;DHT22;23119;51.842;-2.230;2023-04-03T08:06:03;33.30;57.70
37222;DHT22;23119;51.842;-2.230;2023-04-03T08:08:29;33.80;56.20
37222;DHT22;23119;51.842;-2.230;2023-04-03T08:10:58;34.00;57.00
37222;DHT22;23119;51.842;-2.230;2023-04-03T08:13:29;33.70;54.30
37222;DHT22;23119;51.842;-2.230;2023-04-03T08:15:57;33.10;54.60
37222;DHT22;23119;51.842;-2.230;2023-04-03T08:18:24;32.40;54.60
37222;DHT22;23119;51.842;-2.230;2023-04-03T08:20:53;32.80;55.80
37222;DHT22;23119;51.842;-2.230;2023-04-03T08:23:19;32.30;55.60
37222;DHT22;23119;51.842;-2.230;2023-04-03T08:25:45;32.00;55.80
37222;DHT22;23119;51.842;-2.230;2023-04-03T08:28:11;31.70;56.20
37222;DHT22;23119;51.842;-2.230;2023-04-03T08:30:43;31.30;55.50
37222;DHT22;23119;51.842;-2.230;2023-04-03T08:33:10;31.00;55.40
37222;DHT22;23119;51.842;-2.230;2023-04-03T08:35:42;31.40;55.70
37222;DHT22;23119;51.842;-2.230;2023-04-03T08:38:08;31.50;55.10
37222;DHT22;23119;51.842;-2.230;2023-04-03T08:40:34;31.70;55.80
37222;DHT22;23119;51.842;-2.230;2023-04-03T08:43:41;31.10;56.40
37222;DHT22;23119;51.842;-2.230;2023-04-03T08:46:14;30.10;55.80
37222;DHT22;23119;51.842;-2.230;2023-04-03T08:48:43;30.00;56.70
37222;DHT22;23119;51.842;-2.230;2023-04-03T08:51:15;29.60;56.30
37222;DHT22;23119;51.842;-2.230;2023-04-03T08:54:05;29.00;56.30
37222;DHT22;23119;51.842;-2.230;2023-04-03T08:56:35;27.20;57.10
37222;DHT22;23119;51.842;-2.230;2023-04-03T08:59:10;25.00;58.70
37222;DHT22;23119;51.842;-2.230;2023-04-03T09:01:43;23.50;61.90
37222;DHT22;23119;51.842;-2.230;2023-04-03T09:04:15;21.60;63.90
37222;DHT22;23119;51.842;-2.230;2023-04-03T09:06:44;19.60;67.40
37222;DHT22;23119;51.842;-2.230;2023-04-03T09:09:35;18.50;68.60
37222;DHT22;23119;51.842;-2.230;2023-04-03T09:15:02;17.40;73.20
37222;DHT22;23119;51.842;-2.230;2023-04-03T09:20:56;15.50;76.70
37222;DHT22;23119;51.842;-2.230;2023-04-03T09:26:01;17.10;74.20
37222;DHT22;23119;51.842;-2.230;2023-04-03T09:28:33;17.20;73.30
37222;DHT22;23119;51.842;-2.230;2023-04-03T09:31:03;16.60;74.60
37222;DHT22;23119;51.842;-2.230;2023-04-03T09:33:35;16.20;76.20
37222;DHT22;23119;51.842;-2.230;2023-04-03T09:36:01;15.70;77.30
37222;DHT22;23119;51.842;-2.230;2023-04-03T09:38:31;15.50;78.50
37222;DHT22;23119;51.842;-2.230;2023-04-03T09:41:04;15.20;80.10
37222;DHT22;23119;51.842;-2.230;2023-04-03T09:43:33;14.90;80.40
37222;DHT22;23119;51.842;-2.230;2023-04-03T09:46:38;15.20;81.00
37222;DHT22;23119;51.842;-2.230;2023-04-03T09:49:13;14.90;81.00
37222;DHT22;23119;51.842;-2.230;2023-04-03T09:51:44;14.60;81.90
37222;DHT22;23119;51.842;-2.230;2023-04-03T09:54:36;15.00;82.70
37222;DHT22;23119;51.842;-2.230;2023-04-03T09:57:08;14.90;81.40
37222;DHT22;23119;51.842;-2.230;2023-04-03T09:59:47;14.50;81.60
37222;DHT22;23119;51.842;-2.230;2023-04-03T10:02:37;14.30;82.50
37222;DHT22;23119;51.842;-2.230;2023-04-03T10:05:26;13.70;83.70
37222;DHT22;23119;51.842;-2.230;2023-04-03T10:07:52;13.30;85.70
37222;DHT22;23119;51.842;-2.230;2023-04-03T10:10:22;13.10;85.50
37222;DHT22;23119;51.842;-2.230;2023-04-03T10:13:17;13.00;86.30
37222;DHT22;23119;51.842;-2.230;2023-04-03T10:15:57;12.90;87.50
37222;DHT22;23119;51.842;-2.230;2023-04-03T10:21:20;13.20;87.60
37222;DHT22;23119;51.842;-2.230;2023-04-03T10:24:06;13.30;87.50
37222;DHT22;23119;51.842;-2.230;2023-04-03T10:26:52;13.50;86.90
37222;DHT22;23119;51.842;-2.230;2023-04-03T10:32:25;13.60;87.00
37222;DHT22;23119;51.842;-2.230;2023-04-03T10:38:10;13.70;86.50
37222;DHT22;23119;51.842;-2.230;2023-04-03T10:43:54;13.40;86.90
37222;DHT22;23119;51.842;-2.230;2023-04-03T10:46:52;13.10;88.00
37222;DHT22;23119;51.842;-2.230;2023-04-03T10:57:22;12.80;89.80
37222;DHT22;23119;51.842;-2.230;2023-04-03T10:59:59;12.60;90.50
37222;DHT22;23119;51.842;-2.230;2023-04-03T11:02:51;12.50;90.10
37222;DHT22;23119;51.842;-2.230;2023-04-03T11:05:31;12.40;90.60
37222;DHT22;23119;51.842;-2.230;2023-04-03T11:08:26;12.50;90.90
37222;DHT22;23119;51.842;-2.230;2023-04-03T11:10:58;12.80;90.60
37222;DHT22;23119;51.842;-2.230;2023-04-03T11:13:55;13.00;89.90
37222;DHT22;23119;51.842;-2.230;2023-04-03T11:16:33;13.00;90.30
37222;DHT22;23119;51.842;-2.230;2023-04-03T11:19:16;13.20;90.00
37222;DHT22;23119;51.842;-2.230;2023-04-03T11:22:16;13.20;88.90
37222;DHT22;23119;51.842;-2.230;2023-04-03T11:24:57;13.30;89.10
37222;DHT22;23119;51.842;-2.230;2023-04-03T11:27:24;13.30;88.90
37222;DHT22;23119;51.842;-2.230;2023-04-03T11:29:52;13.10;87.50
37222;DHT22;23119;51.842;-2.230;2023-04-03T11:32:45;13.10;88.60
37222;DHT22;23119;51.842;-2.230;2023-04-03T11:35:14;13.30;87.90
37222;DHT22;23119;51.842;-2.230;2023-04-03T11:37:47;13.50;89.20
37222;DHT22;23119;51.842;-2.230;2023-04-03T11:40:26;13.80;89.20
37222;DHT22;23119;51.842;-2.230;2023-04-03T11:43:04;13.90;89.10
37222;DHT22;23119;51.842;-2.230;2023-04-03T11:46:15;13.80;88.90
37222;DHT22;23119;51.842;-2.230;2023-04-03T11:51:47;13.70;90.00
37222;DHT22;23119;51.842;-2.230;2023-04-03T11:53:48;13.70;88.80
37222;DHT22;23119;51.842;-2.230;2023-04-03T12:01:54;13.80;88.50
37222;DHT22;23119;51.842;-2.230;2023-04-03T12:04:23;13.80;88.50
37222;DHT22;23119;51.842;-2.230;2023-04-03T12:07:13;13.60;89.50
37222;DHT22;23119;51.842;-2.230;2023-04-03T12:12:37;13.20;90.40
37222;DHT22;23119;51.842;-2.230;2023-04-03T12:15:50;13.50;90.40
37222;DHT22;23119;51.842;-2.230;2023-04-03T12:18:53;13.70;90.20
37222;DHT22;23119;51.842;-2.230;2023-04-03T12:35:26;15.10;88.10
37222;DHT22;23119;51.842;-2.230;2023-04-03T12:46:04;14.50;89.20
37222;DHT22;23119;51.842;-2.230;2023-04-03T12:48:46;14.50;89.20
37222;DHT22;23119;51.842;-2.230;2023-04-03T12:54:15;14.40;89.20
37222;DHT22;23119;51.842;-2.230;2023-04-03T12:56:44;14.20;89.00
37222;DHT22;23119;51.842;-2.230;2023-04-03T13:02:00;13.80;89.90
37222;DHT22;23119;51.842;-2.230;2023-04-03T13:04:33;13.60;90.10
37222;DHT22;23119;51.842;-2.230;2023-04-03T13:07:02;13.60;90.20
37222;DHT22;23119;51.842;-2.230;2023-04-03T13:09:30;13.60;90.40
37222;DHT22;23119;51.842;-2.230;2023-04-03T13:12:02;13.60;90.40
37222;DHT22;23119;51.842;-2.230;2023-04-03T13:14:33;13.60;90.40
37222;DHT22;23119;51.842;-2.230;2023-04-03T13:17:10;13.70;90.70
37222;DHT22;23119;51.842;-2.230;2023-04-03T13:19:38;13.80;90.70
37222;DHT22;23119;51.842;-2.230;2023-04-03T13:22:38;13.80;90.90
37222;DHT22;23119;51.842;-2.230;2023-04-03T13:25:11;13.80;90.80
37222;DHT22;23119;51.842;-2.230;2023-04-03T13:27:41;13.80;90.90
37222;DHT22;23119;51.842;-2.230;2023-04-03T13:30:53;13.80;91.00
37222;DHT22;23119;51.842;-2.230;2023-04-03T13:33:26;13.70;90.80
37222;DHT22;23119;51.842;-2.230;2023-04-03T13:36:02;13.60;90.90
37222;DHT22;23119;51.842;-2.230;2023-04-03T13:38:33;13.80;91.20
37222;DHT22;23119;51.842;-2.230;2023-04-03T13:41:26;13.80;91.10
37222;DHT22;23119;51.842;-2.230;2023-04-03T13:43:55;13.80;90.50
37222;DHT22;23119;51.842;-2.230;2023-04-03T13:46:30;13.70;91.20
37222;DHT22;23119;51.842;-2.230;2023-04-03T13:48:57;13.70;91.20
37222;DHT22;23119;51.842;-2.230;2023-04-03T13:51:27;13.70;91.20
37222;DHT22;23119;51.842;-2.230;2023-04-03T13:54:01;13.70;90.40
37222;DHT22;23119;51.842;-2.230;2023-04-03T13:56:43;13.60;90.20
37222;DHT22;23119;51.842;-2.230;2023-04-03T14:04:47;13.60;91.20
37222;DHT22;23119;51.842;-2.230;2023-04-03T14:07:15;13.70;91.30
37222;DHT22;23119;51.842;-2.230;2023-04-03T14:09:42;13.60;91.50
37222;DHT22;23119;51.842;-2.230;2023-04-03T14:12:31;13.70;91.50
37222;DHT22;23119;51.842;-2.230;2023-04-03T14:15:06;13.80;90.90
37222;DHT22;23119;51.842;-2.230;2023-04-03T14:17:36;13.70;90.90
37222;DHT22;23119;51.842;-2.230;2023-04-03T14:20:03;13.80;90.70
37222;DHT22;23119;51.842;-2.230;2023-04-03T14:22:31;13.70;90.50
37222;DHT22;23119;51.842;-2.230;2023-04-03T14:24:58;13.70;90.90
37222;DHT22;23119;51.842;-2.230;2023-04-03T14:27:30;13.60;91.20
37222;DHT22;23119;51.842;-2.230;2023-04-03T14:30:11;13.60;90.70
37222;DHT22;23119;51.842;-2.230;2023-04-03T14:32:43;13.70;90.90
37222;DHT22;23119;51.842;-2.230;2023-04-03T14:35:12;13.80;91.10
37222;DHT22;23119;51.842;-2.230;2023-04-03T14:37:45;14.00;90.70
37222;DHT22;23119;51.842;-2.230;2023-04-03T14:40:25;14.10;90.80
37222;DHT22;23119;51.842;-2.230;2023-04-03T14:42:52;14.10;90.50
37222;DHT22;23119;51.842;-2.230;2023-04-03T14:45:21;14.20;90.80
37222;DHT22;23119;51.842;-2.230;2023-04-03T14:47:50;14.00;91.50
37222;DHT22;23119;51.842;-2.230;2023-04-03T14:50:23;14.00;91.80
37222;DHT22;23119;51.842;-2.230;2023-04-03T14:52:55;13.90;91.80
37222;DHT22;23119;51.842;-2.230;2023-04-03T14:55:24;13.70;91.60
37222;DHT22;23119;51.842;-2.230;2023-04-03T14:57:51;13.70;91.90
37222;DHT22;23119;51.842;-2.230;2023-04-03T15:00:19;13.70;91.50
37222;DHT22;23119;51.842;-2.230;2023-04-03T15:02:46;13.70;91.70
37222;DHT22;23119;51.842;-2.230;2023-04-03T15:05:13;13.70;91.80
37222;DHT22;23119;51.842;-2.230;2023-04-03T15:07:42;13.70;91.90
37222;DHT22;23119;51.842;-2.230;2023-04-03T15:12:41;13.70;92.20
37222;DHT22;23119;51.842;-2.230;2023-04-03T15:15:09;13.60;91.90
37222;DHT22;23119;51.842;-2.230;2023-04-03T15:17:45;13.50;91.90
37222;DHT22;23119;51.842;-2.230;2023-04-03T15:20:22;13.50;91.90
37222;DHT22;23119;51.842;-2.230;2023-04-03T15:22:51;13.50;92.10
37222;DHT22;23119;51.842;-2.230;2023-04-03T15:28:09;13.40;92.50
37222;DHT22;23119;51.842;-2.230;2023-04-03T15:30:39;13.40;92.40
37222;DHT22;23119;51.842;-2.230;2023-04-03T15:33:06;13.40;92.30
37222;DHT22;23119;51.842;-2.230;2023-04-03T15:35:32;13.40;92.30
37222;DHT22;23119;51.842;-2.230;2023-04-03T15:37:57;13.50;92.40
37222;DHT22;23119;51.842;-2.230;2023-04-03T15:40:26;13.40;92.10
37222;DHT22;23119;51.842;-2.230;2023-04-03T15:43:05;13.50;92.40
37222;DHT22;23119;51.842;-2.230;2023-04-03T15:45:31;13.40;92.40
37222;DHT22;23119;51.842;-2.230;2023-04-03T15:48:01;13.50;92.70
37222;DHT22;23119;51.842;-2.230;2023-04-03T15:50:33;13.40;92.80
37222;DHT22;23119;51.842;-2.230;2023-04-03T15:53:00;13.50;93.10
37222;DHT22;23119;51.842;-2.230;2023-04-03T15:55:32;13.50;92.90
37222;DHT22;23119;51.842;-2.230;2023-04-03T15:57:58;13.40;92.80
37222;DHT22;23119;51.842;-2.230;2023-04-03T16:00:28;13.50;92.90
37222;DHT22;23119;51.842;-2.230;2023-04-03T16:03:17;13.50;92.80
37222;DHT22;23119;51.842;-2.230;2023-04-03T16:05:47;13.60;92.80
37222;DHT22;23119;51.842;-2.230;2023-04-03T16:08:14;13.60;92.90
37222;DHT22;23119;51.842;-2.230;2023-04-03T16:10:43;13.50;92.60
37222;DHT22;23119;51.842;-2.230;2023-04-03T16:13:16;13.50;92.50
37222;DHT22;23119;51.842;-2.230;2023-04-03T16:15:48;13.60;92.60
37222;DHT22;23119;51.842;-2.230;2023-04-03T16:18:14;13.50;92.70
37222;DHT22;23119;51.842;-2.230;2023-04-03T16:20:43;13.50;92.70
37222;DHT22;23119;51.842;-2.230;2023-04-03T16:23:14;13.50;92.50
37222;DHT22;23119;51.842;-2.230;2023-04-03T16:25:45;13.50;92.60
37222;DHT22;23119;51.842;-2.230;2023-04-03T16:28:17;13.50;92.50
37222;DHT22;23119;51.842;-2.230;2023-04-03T16:30:45;13.40;92.00
37222;DHT22;23119;51.842;-2.230;2023-04-03T16:33:15;13.40;92.20
37222;DHT22;23119;51.842;-2.230;2023-04-03T16:35:41;13.30;92.20
37222;DHT22;23119;51.842;-2.230;2023-04-03T16:38:09;13.40;92.50
37222;DHT22;23119;51.842;-2.230;2023-04-03T16:40:41;13.40;92.30
37222;DHT22;23119;51.842;-2.230;2023-04-03T16:43:12;13.40;91.90
37222;DHT22;23119;51.842;-2.230;2023-04-03T16:45:44;13.30;91.80
37222;DHT22;23119;51.842;-2.230;2023-04-03T16:48:13;13.30;91.60
37222;DHT22;23119;51.842;-2.230;2023-04-03T16:50:48;13.20;91.90
37222;DHT22;23119;51.842;-2.230;2023-04-03T16:53:21;13.30;92.10
37222;DHT22;23119;51.842;-2.230;2023-04-03T16:55:46;13.20;92.50
37222;DHT22;23119;51.842;-2.230;2023-04-03T16:58:15;13.20;92.30
37222;DHT22;23119;51.842;-2.230;2023-04-03T17:00:43;13.10;92.40
37222;DHT22;23119;51.842;-2.230;2023-04-03T17:03:12;13.10;92.30
37222;DHT22;23119;51.842;-2.230;2023-04-03T17:05:47;13.10;92.50
37222;DHT22;23119;51.842;-2.230;2023-04-03T17:08:19;13.10;92.40
37222;DHT22;23119;51.842;-2.230;2023-04-03T17:10:48;13.10;92.50
37222;DHT22;23119;51.842;-2.230;2023-04-03T17:13:16;13.10;92.70